Talos — 9HA4371 — position and weather

sailwx.info

Track history (hours):
 
Tides and Currents Weather Stations Pressure Air Temp Water Temp Dewpoint Dewpoint Depression Visibility Wind Speed Wind Dir Waves Ship Positions

Talos

Last reported at 2017-Nov-18 10:00 UTC. Time now 2017-Nov-18 10:17 UTC.
Position N 01°16' E 103°47'.

Length 369 m; draft 14.4 m.

Type: Cargo ship. MMSI: 249769000.

Date/timePositionNaut miles runAvg speedWind from/ knotsBaromVisibWave heightAir tempDewpointWater temp
2017-Nov-18 10:00N 01°16' E 103°47'0 0.0
2017-Nov-18 09:30N 01°16' E 103°47'0 0.0
2017-Nov-18 09:00N 01°16' E 103°47'0 0.0
2017-Nov-18 08:27N 01°16' E 103°47'0 0.0
2017-Nov-18 07:57N 01°16' E 103°47'0 0.0
2017-Nov-18 07:30N 01°16' E 103°47'0 0.1
2017-Nov-18 07:00N 01°16' E 103°47'0 0.1
2017-Nov-18 06:30N 01°16' E 103°47'0 0.0
2017-Nov-18 06:00N 01°16' E 103°47'0 0.0
2017-Nov-18 05:30N 01°16' E 103°47'0 0.0
2017-Nov-18 05:00N 01°16' E 103°47'0 0.0
2017-Nov-18 04:30N 01°16' E 103°47'0 0.0
2017-Nov-18 04:00N 01°16' E 103°47'0 0.0
2017-Nov-18 03:30N 01°16' E 103°47'0 0.1
2017-Nov-18 03:00N 01°16' E 103°47'0 0.1
2017-Nov-18 02:30N 01°16' E 103°47'0 0.0
2017-Nov-18 02:00N 01°16' E 103°47'0 0.2
2017-Nov-18 01:30N 01°16' E 103°47'0 0.6
2017-Nov-18 01:01N 01°15' E 103°46'1 1.3
2017-Nov-18 00:30N 01°15' E 103°47'0 0.1
2017-Nov-18 00:00N 01°15' E 103°47'0 0.3
2017-Nov-17 23:31N 01°15' E 103°47'2 4.9
2017-Nov-17 23:00N 01°15' E 103°44'4 8.9
2017-Nov-17 22:30N 01°12' E 103°40'4 7.9
2017-Nov-17 22:00N 01°12' E 103°36'3 5.0
2017-Nov-17 21:30N 01°13' E 103°34'2 3.2
2017-Nov-17 21:00N 01°13' E 103°32'1 1.5
2017-Nov-17 20:30N 01°14' E 103°32'2 4.8
2017-Nov-17 20:00N 01°16' E 103°33'5 9.9
2017-Nov-17 19:30N 01°21' E 103°33'0 0.8
2017-Nov-17 19:00N 01°21' E 103°33'0 0.1
2017-Nov-17 18:17N 01°21' E 103°33'0 0.0
2017-Nov-17 17:59N 01°21' E 103°33'0 0.0
2017-Nov-17 17:26N 01°21' E 103°33'0 0.0
2017-Nov-17 16:35N 01°21' E 103°33'0 0.0
2017-Nov-17 16:17N 01°21' E 103°33'0 0.0
2017-Nov-17 15:59N 01°21' E 103°33'0 0.0
2017-Nov-17 15:26N 01°21' E 103°33'0 0.0
2017-Nov-17 14:59N 01°21' E 103°33'0 0.0
2017-Nov-17 14:29N 01°21' E 103°33'0 0.0
2017-Nov-17 13:56N 01°21' E 103°33'0 0.0
2017-Nov-17 13:29N 01°21' E 103°33'0 0.0
2017-Nov-17 12:47N 01°21' E 103°33'0 0.0
2017-Nov-17 12:26N 01°21' E 103°33'0 0.0
2017-Nov-17 11:47N 01°21' E 103°33'0 0.0
2017-Nov-17 11:29N 01°21' E 103°33'0 0.0
2017-Nov-17 10:56N 01°21' E 103°33'0 0.0
2017-Nov-17 10:23N 01°21' E 103°33'0 0.0
2017-Nov-17 09:56N 01°21' E 103°33'0 0.0
2017-Nov-17 09:20N 01°21' E 103°33'0 0.0
2017-Nov-17 08:47N 01°21' E 103°33'0 0.0
2017-Nov-17 08:26N 01°21' E 103°33'0 0.0
2017-Nov-17 07:53N 01°21' E 103°33'0 0.0
2017-Nov-17 07:08N 01°21' E 103°33'0 0.0
2017-Nov-17 06:56N 01°21' E 103°33'0 0.0
2017-Nov-17 06:23N 01°21' E 103°33'0 0.0
2017-Nov-17 05:59N 01°21' E 103°33'0 0.0
2017-Nov-17 05:29N 01°21' E 103°33'0 0.0
2017-Nov-17 04:59N 01°21' E 103°33'0 0.0
2017-Nov-17 04:23N 01°21' E 103°33'0 0.0
2017-Nov-17 03:53N 01°21' E 103°33'0 0.0
2017-Nov-17 03:29N 01°21' E 103°33'0 0.0
2017-Nov-17 02:59N 01°21' E 103°33'0 0.0
2017-Nov-17 02:29N 01°21' E 103°33'0 0.0
2017-Nov-17 01:53N 01°21' E 103°33'0 0.0
2017-Nov-17 01:29N 01°21' E 103°33'0 0.0
2017-Nov-17 00:59N 01°21' E 103°33'0 0.0
2017-Nov-17 00:29N 01°21' E 103°33'0 0.0
2017-Nov-16 22:59N 01°21' E 103°33'0 0.0
2017-Nov-16 22:20N 01°21' E 103°33'0 0.0
2017-Nov-16 21:59N 01°21' E 103°33'0 0.0
2017-Nov-16 21:29N 01°21' E 103°33'0 0.0
2017-Nov-16 20:56N 01°21' E 103°33'0 0.0
2017-Nov-16 20:29N 01°21' E 103°33'0 0.0
2017-Nov-16 19:56N 01°21' E 103°33'0 0.0
2017-Nov-16 19:20N 01°21' E 103°33'0 0.0
2017-Nov-16 18:56N 01°21' E 103°33'0 0.0
2017-Nov-16 18:29N 01°21' E 103°33'0 0.0
2017-Nov-16 17:29N 01°21' E 103°33'0 0.0
2017-Nov-16 16:59N 01°21' E 103°33'0 0.0
2017-Nov-16 16:29N 01°21' E 103°33'0 0.0
2017-Nov-16 15:53N 01°21' E 103°33'0 0.0
2017-Nov-16 15:29N 01°21' E 103°33'0 0.4
2017-Nov-16 15:00N 01°21' E 103°33'2 4.7
2017-Nov-16 14:30N 01°19' E 103°33'510.8
2017-Nov-16 14:01N 01°14' E 103°32'5 9.7
2017-Nov-16 13:30N 01°10' E 103°29'713.8
2017-Nov-16 13:00N 01°14' E 103°23'815.1
2017-Nov-16 12:29N 01°19' E 103°17'918.3
2017-Nov-16 11:59N 01°24' E 103°09'  
Track history (hours):
 
Tides and Currents Weather Stations Pressure Air Temp Water Temp Dewpoint Dewpoint Depression Visibility Wind Speed Wind Dir Waves Ship Positions

Talos

Last reported at 2017-Nov-18 10:00 UTC. Time now 2017-Nov-18 10:17 UTC.
Position N 01°16' E 103°47'.

Length 369 m; draft 14.4 m.

Type: Cargo ship. MMSI: 249769000.

Date/timePositionNaut miles runAvg speedWind from/ knotsBaromVisibWave heightAir tempDewpointWater temp
2017-Nov-18 10:00N 01°16' E 103°47'0 0.0
2017-Nov-18 09:30N 01°16' E 103°47'0 0.0
2017-Nov-18 09:00N 01°16' E 103°47'0 0.0
2017-Nov-18 08:27N 01°16' E 103°47'0 0.0
2017-Nov-18 07:57N 01°16' E 103°47'0 0.0
2017-Nov-18 07:30N 01°16' E 103°47'0 0.1
2017-Nov-18 07:00N 01°16' E 103°47'0 0.1
2017-Nov-18 06:30N 01°16' E 103°47'0 0.0
2017-Nov-18 06:00N 01°16' E 103°47'0 0.0
2017-Nov-18 05:30N 01°16' E 103°47'0 0.0
2017-Nov-18 05:00N 01°16' E 103°47'0 0.0
2017-Nov-18 04:30N 01°16' E 103°47'0 0.0
2017-Nov-18 04:00N 01°16' E 103°47'0 0.0
2017-Nov-18 03:30N 01°16' E 103°47'0 0.1
2017-Nov-18 03:00N 01°16' E 103°47'0 0.1
2017-Nov-18 02:30N 01°16' E 103°47'0 0.0
2017-Nov-18 02:00N 01°16' E 103°47'0 0.2
2017-Nov-18 01:30N 01°16' E 103°47'0 0.6
2017-Nov-18 01:01N 01°15' E 103°46'1 1.3
2017-Nov-18 00:30N 01°15' E 103°47'0 0.1
2017-Nov-18 00:00N 01°15' E 103°47'0 0.3
2017-Nov-17 23:31N 01°15' E 103°47'2 4.9
2017-Nov-17 23:00N 01°15' E 103°44'4 8.9
2017-Nov-17 22:30N 01°12' E 103°40'4 7.9
2017-Nov-17 22:00N 01°12' E 103°36'3 5.0
2017-Nov-17 21:30N 01°13' E 103°34'2 3.2
2017-Nov-17 21:00N 01°13' E 103°32'1 1.5
2017-Nov-17 20:30N 01°14' E 103°32'2 4.8
2017-Nov-17 20:00N 01°16' E 103°33'5 9.9
2017-Nov-17 19:30N 01°21' E 103°33'0 0.8
2017-Nov-17 19:00N 01°21' E 103°33'0 0.1
2017-Nov-17 18:17N 01°21' E 103°33'0 0.0
2017-Nov-17 17:59N 01°21' E 103°33'0 0.0
2017-Nov-17 17:26N 01°21' E 103°33'0 0.0
2017-Nov-17 16:35N 01°21' E 103°33'0 0.0
2017-Nov-17 16:17N 01°21' E 103°33'0 0.0
2017-Nov-17 15:59N 01°21' E 103°33'0 0.0
2017-Nov-17 15:26N 01°21' E 103°33'0 0.0
2017-Nov-17 14:59N 01°21' E 103°33'0 0.0
2017-Nov-17 14:29N 01°21' E 103°33'0 0.0
2017-Nov-17 13:56N 01°21' E 103°33'0 0.0
2017-Nov-17 13:29N 01°21' E 103°33'0 0.0
2017-Nov-17 12:47N 01°21' E 103°33'0 0.0
2017-Nov-17 12:26N 01°21' E 103°33'0 0.0
2017-Nov-17 11:47N 01°21' E 103°33'0 0.0
2017-Nov-17 11:29N 01°21' E 103°33'0 0.0
2017-Nov-17 10:56N 01°21' E 103°33'0 0.0
2017-Nov-17 10:23N 01°21' E 103°33'0 0.0
2017-Nov-17 09:56N 01°21' E 103°33'0 0.0
2017-Nov-17 09:20N 01°21' E 103°33'0 0.0
2017-Nov-17 08:47N 01°21' E 103°33'0 0.0
2017-Nov-17 08:26N 01°21' E 103°33'0 0.0
2017-Nov-17 07:53N 01°21' E 103°33'0 0.0
2017-Nov-17 07:08N 01°21' E 103°33'0 0.0
2017-Nov-17 06:56N 01°21' E 103°33'0 0.0
2017-Nov-17 06:23N 01°21' E 103°33'0 0.0
2017-Nov-17 05:59N 01°21' E 103°33'0 0.0
2017-Nov-17 05:29N 01°21' E 103°33'0 0.0
2017-Nov-17 04:59N 01°21' E 103°33'0 0.0
2017-Nov-17 04:23N 01°21' E 103°33'0 0.0
2017-Nov-17 03:53N 01°21' E 103°33'0 0.0
2017-Nov-17 03:29N 01°21' E 103°33'0 0.0
2017-Nov-17 02:59N 01°21' E 103°33'0 0.0
2017-Nov-17 02:29N 01°21' E 103°33'0 0.0
2017-Nov-17 01:53N 01°21' E 103°33'0 0.0
2017-Nov-17 01:29N 01°21' E 103°33'0 0.0
2017-Nov-17 00:59N 01°21' E 103°33'0 0.0
2017-Nov-17 00:29N 01°21' E 103°33'0 0.0
2017-Nov-16 22:59N 01°21' E 103°33'0 0.0
2017-Nov-16 22:20N 01°21' E 103°33'0 0.0
2017-Nov-16 21:59N 01°21' E 103°33'0 0.0
2017-Nov-16 21:29N 01°21' E 103°33'0 0.0
2017-Nov-16 20:56N 01°21' E 103°33'0 0.0
2017-Nov-16 20:29N 01°21' E 103°33'0 0.0
2017-Nov-16 19:56N 01°21' E 103°33'0 0.0
2017-Nov-16 19:20N 01°21' E 103°33'0 0.0
2017-Nov-16 18:56N 01°21' E 103°33'0 0.0
2017-Nov-16 18:29N 01°21' E 103°33'0 0.0
2017-Nov-16 17:29N 01°21' E 103°33'0 0.0
2017-Nov-16 16:59N 01°21' E 103°33'0 0.0
2017-Nov-16 16:29N 01°21' E 103°33'0 0.0
2017-Nov-16 15:53N 01°21' E 103°33'0 0.0
2017-Nov-16 15:29N 01°21' E 103°33'0 0.4
2017-Nov-16 15:00N 01°21' E 103°33'2 4.7
2017-Nov-16 14:30N 01°19' E 103°33'510.8
2017-Nov-16 14:01N 01°14' E 103°32'5 9.7
2017-Nov-16 13:30N 01°10' E 103°29'713.8
2017-Nov-16 13:00N 01°14' E 103°23'815.1
2017-Nov-16 12:29N 01°19' E 103°17'918.3
2017-Nov-16 11:59N 01°24' E 103°09'  

Dump ship's entire track history